Time,TemperatureF,DewpointF,PressureIn,WindDirection,WindDirectionDegrees,WindSpeedMPH,WindSpeedGustMPH,Humidity,HourlyPrecipIn,Conditions,Clouds,dailyrainin,SoftwareType,DateUTC
2013-08-11 00:03:00,71.7,66.6,29.99,West,270,0.0,0.0,84,0.00,,,0.00,WUHU216HW,2013-08-11 04:03:00,
2013-08-11 00:08:00,71.7,66.6,30.00,West,270,0.0,0.0,84,0.00,,,0.00,WUHU216HW,2013-08-11 04:08:00,
2013-08-11 00:13:00,71.6,66.4,30.00,West,270,0.0,0.0,84,0.00,,,0.00,WUHU216HW,2013-08-11 04:13:00,
2013-08-11 00:18:00,71.4,66.3,30.00,West,270,0.0,0.0,84,0.00,,,0.00,WUHU216HW,2013-08-11 04:18:00,
2013-08-11 00:23:00,71.4,66.3,29.99,West,270,0.0,0.0,84,0.00,,,0.00,WUHU216HW,2013-08-11 04:23:00,
2013-08-11 00:28:00,71.4,66.3,29.99,West,270,0.0,0.0,84,0.00,,,0.00,WUHU216HW,2013-08-11 04:28:00,
2013-08-11 00:33:00,71.4,66.3,29.99,West,270,0.0,0.0,84,0.00,,,0.00,WUHU216HW,2013-08-11 04:33:00,
2013-08-11 00:38:00,71.4,66.3,29.99,West,270,0.0,0.0,84,0.00,,,0.00,WUHU216HW,2013-08-11 04:38:00,
2013-08-11 00:43:00,71.2,66.1,30.00,West,270,0.0,0.0,84,0.00,,,0.00,WUHU216HW,2013-08-11 04:43:00,
2013-08-11 00:48:00,71.2,66.1,29.99,West,270,0.0,0.0,84,0.00,,,0.00,WUHU216HW,2013-08-11 04:48:00,
2013-08-11 00:53:00,71.2,66.4,30.00,West,270,0.0,0.0,85,0.00,,,0.00,WUHU216HW,2013-08-11 04:53:00,
2013-08-11 00:58:00,71.2,66.4,30.00,West,270,0.0,0.0,85,0.00,,,0.00,WUHU216HW,2013-08-11 04:58:00,
2013-08-11 01:03:00,71.0,66.2,30.00,West,270,0.0,0.0,85,0.00,,,0.00,WUHU216HW,2013-08-11 05:03:00,
2013-08-11 01:08:00,70.8,66.1,30.00,West,270,0.0,0.0,85,0.00,,,0.00,WUHU216HW,2013-08-11 05:08:00,
2013-08-11 01:13:00,70.8,66.1,29.99,West,270,0.0,0.0,85,0.00,,,0.00,WUHU216HW,2013-08-11 05:13:00,
2013-08-11 01:18:00,70.8,66.1,29.99,West,270,0.0,0.0,85,0.00,,,0.00,WUHU216HW,2013-08-11 05:18:00,
2013-08-11 01:23:00,70.7,65.9,29.99,West,270,0.0,0.0,85,0.00,,,0.00,WUHU216HW,2013-08-11 05:23:00,
2013-08-11 01:28:00,70.7,65.9,29.99,West,270,0.0,0.0,85,0.00,,,0.00,WUHU216HW,2013-08-11 05:28:00,
2013-08-11 01:33:00,70.5,65.7,29.99,West,270,0.0,0.0,85,0.00,,,0.00,WUHU216HW,2013-08-11 05:33:00,
2013-08-11 01:38:00,70.3,65.5,29.99,West,270,0.0,0.0,85,0.00,,,0.00,WUHU216HW,2013-08-11 05:38:00,
2013-08-11 01:44:00,70.3,65.5,29.99,West,270,0.0,0.0,85,0.00,,,0.00,WUHU216HW,2013-08-11 05:44:00,
2013-08-11 01:49:00,70.3,65.5,29.99,West,270,0.0,0.0,85,0.00,,,0.00,WUHU216HW,2013-08-11 05:49:00,
2013-08-11 01:54:00,70.3,65.5,29.99,West,270,0.0,0.0,85,0.00,,,0.00,WUHU216HW,2013-08-11 05:54:00,
2013-08-11 01:59:00,70.1,65.3,29.99,West,270,0.0,0.0,85,0.00,,,0.00,WUHU216HW,2013-08-11 05:59:00,
2013-08-11 02:04:00,70.1,65.3,29.99,West,270,0.0,0.0,85,0.00,,,0.00,WUHU216HW,2013-08-11 06:04:00,
2013-08-11 02:09:00,69.9,65.5,29.99,West,270,0.0,0.0,86,0.00,,,0.00,WUHU216HW,2013-08-11 06:09:00,
2013-08-11 02:14:00,69.9,65.5,29.99,West,270,0.0,0.0,86,0.00,,,0.00,WUHU216HW,2013-08-11 06:14:00,
2013-08-11 02:19:00,69.9,65.5,29.99,West,270,0.0,0.0,86,0.00,,,0.00,WUHU216HW,2013-08-11 06:19:00,
2013-08-11 02:25:00,69.8,65.3,29.99,West,270,0.0,0.0,86,0.00,,,0.00,WUHU216HW,2013-08-11 06:25:00,
2013-08-11 02:30:00,69.6,65.1,29.99,West,270,0.0,0.0,86,0.00,,,0.00,WUHU216HW,2013-08-11 06:30:00,
2013-08-11 02:35:00,69.6,65.1,30.00,West,270,0.0,0.0,86,0.00,,,0.00,WUHU216HW,2013-08-11 06:35:00,
2013-08-11 02:40:00,69.6,65.1,30.00,West,270,0.0,0.0,86,0.00,,,0.00,WUHU216HW,2013-08-11 06:40:00,
2013-08-11 02:45:00,69.6,65.1,30.00,West,270,0.0,0.0,86,0.00,,,0.00,WUHU216HW,2013-08-11 06:45:00,
2013-08-11 02:50:00,69.6,65.1,29.99,West,270,0.0,0.0,86,0.00,,,0.00,WUHU216HW,2013-08-11 06:50:00,
2013-08-11 02:55:00,69.6,65.1,30.00,West,270,0.0,0.0,86,0.00,,,0.00,WUHU216HW,2013-08-11 06:55:00,
2013-08-11 03:00:00,69.6,65.1,29.99,West,270,0.0,0.0,86,0.00,,,0.00,WUHU216HW,2013-08-11 07:00:00,
2013-08-11 03:05:00,69.6,65.1,29.99,West,270,0.0,0.0,86,0.00,,,0.00,WUHU216HW,2013-08-11 07:05:00,
2013-08-11 03:11:00,69.4,65.0,29.99,West,270,0.0,0.0,86,0.00,,,0.00,WUHU216HW,2013-08-11 07:11:00,
2013-08-11 03:16:00,69.4,65.0,29.99,West,270,0.0,0.0,86,0.00,,,0.00,WUHU216HW,2013-08-11 07:16:00,
2013-08-11 03:21:00,69.2,64.8,29.99,West,270,0.0,0.0,86,0.00,,,0.00,WUHU216HW,2013-08-11 07:21:00,
2013-08-11 03:26:00,69.0,64.6,29.99,West,270,0.0,0.0,86,0.00,,,0.00,WUHU216HW,2013-08-11 07:26:00,
2013-08-11 03:31:00,69.0,64.6,29.99,West,270,0.0,0.0,86,0.00,,,0.00,WUHU216HW,2013-08-11 07:31:00,
2013-08-11 03:36:00,69.0,64.6,29.99,West,270,0.0,0.0,86,0.00,,,0.00,WUHU216HW,2013-08-11 07:36:00,
2013-08-11 03:41:00,69.0,64.6,29.99,West,270,0.0,0.0,86,0.00,,,0.00,WUHU216HW,2013-08-11 07:41:00,
2013-08-11 03:46:00,68.9,64.5,29.99,West,270,0.0,0.0,86,0.00,,,0.00,WUHU216HW,2013-08-11 07:46:00,
2013-08-11 03:51:00,68.9,64.5,29.99,West,270,0.0,0.0,86,0.00,,,0.00,WUHU216HW,2013-08-11 07:51:00,
2013-08-11 03:56:00,68.7,64.3,29.98,West,270,0.0,0.0,86,0.00,,,0.00,WUHU216HW,2013-08-11 07:56:00,
2013-08-11 04:01:00,68.7,64.3,29.99,West,270,0.0,0.0,86,0.00,,,0.00,WUHU216HW,2013-08-11 08:01:00,
2013-08-11 04:06:00,68.5,64.1,29.99,West,270,0.0,0.0,86,0.00,,,0.00,WUHU216HW,2013-08-11 08:06:00,
2013-08-11 04:12:00,68.5,64.1,29.99,West,270,0.0,0.0,86,0.00,,,0.00,WUHU216HW,2013-08-11 08:12:00,
2013-08-11 04:17:00,68.5,64.1,29.99,West,270,0.0,0.0,86,0.00,,,0.00,WUHU216HW,2013-08-11 08:17:00,
2013-08-11 04:22:00,68.5,64.1,29.99,West,270,0.0,0.0,86,0.00,,,0.00,WUHU216HW,2013-08-11 08:22:00,
2013-08-11 04:27:00,68.5,64.1,29.99,West,270,0.0,0.0,86,0.00,,,0.00,WUHU216HW,2013-08-11 08:27:00,
2013-08-11 04:32:00,68.3,63.9,29.99,West,270,0.0,0.0,86,0.00,,,0.00,WUHU216HW,2013-08-11 08:32:00,
2013-08-11 04:37:00,68.3,63.9,29.99,West,270,0.0,0.0,86,0.00,,,0.00,WUHU216HW,2013-08-11 08:37:00,
2013-08-11 04:42:00,68.3,63.9,29.99,West,270,0.0,0.0,86,0.00,,,0.00,WUHU216HW,2013-08-11 08:42:00,
2013-08-11 04:48:00,68.1,63.8,29.99,West,270,0.0,0.0,86,0.00,,,0.00,WUHU216HW,2013-08-11 08:48:00,
2013-08-11 04:53:00,68.1,63.8,30.00,West,270,0.0,0.0,86,0.00,,,0.00,WUHU216HW,2013-08-11 08:53:00,
2013-08-11 04:58:00,68.1,63.8,29.99,West,270,0.0,0.0,86,0.00,,,0.00,WUHU216HW,2013-08-11 08:58:00,
2013-08-11 05:03:00,68.1,63.8,29.99,West,270,0.0,0.0,86,0.00,,,0.00,WUHU216HW,2013-08-11 09:03:00,
2013-08-11 05:08:00,67.8,63.4,29.99,West,270,0.0,0.0,86,0.00,,,0.00,WUHU216HW,2013-08-11 09:08:00,
2013-08-11 05:13:00,67.8,63.4,29.99,West,270,0.0,0.0,86,0.00,,,0.00,WUHU216HW,2013-08-11 09:13:00,
2013-08-11 05:18:00,67.8,63.4,29.99,West,270,0.0,0.0,86,0.00,,,0.00,WUHU216HW,2013-08-11 09:18:00,
2013-08-11 05:23:00,67.8,63.7,29.99,West,270,0.0,0.0,87,0.00,,,0.00,WUHU216HW,2013-08-11 09:23:00,
2013-08-11 05:28:00,67.8,63.7,29.99,West,270,0.0,0.0,87,0.00,,,0.00,WUHU216HW,2013-08-11 09:28:00,
2013-08-11 05:33:00,67.8,63.7,29.98,West,270,0.0,0.0,87,0.00,,,0.00,WUHU216HW,2013-08-11 09:33:00,
2013-08-11 05:38:00,67.8,63.7,29.98,West,270,0.0,0.0,87,0.00,,,0.00,WUHU216HW,2013-08-11 09:38:00,
2013-08-11 05:43:00,67.8,63.7,29.99,West,270,0.0,0.0,87,0.00,,,0.00,WUHU216HW,2013-08-11 09:43:00,
2013-08-11 05:48:00,67.8,63.7,29.99,West,270,0.0,0.0,87,0.00,,,0.00,WUHU216HW,2013-08-11 09:48:00,
2013-08-11 05:53:00,67.6,63.6,29.99,West,270,0.0,0.0,87,0.00,,,0.00,WUHU216HW,2013-08-11 09:53:00,
2013-08-11 05:58:00,67.6,63.6,29.99,West,270,0.0,0.0,87,0.00,,,0.00,WUHU216HW,2013-08-11 09:58:00,
2013-08-11 06:03:00,67.6,63.6,29.99,West,270,0.0,0.0,87,0.00,,,0.00,WUHU216HW,2013-08-11 10:03:00,
2013-08-11 06:08:00,67.6,63.6,29.99,West,270,0.0,0.0,87,0.00,,,0.00,WUHU216HW,2013-08-11 10:08:00,
2013-08-11 06:13:00,67.6,63.6,29.99,West,270,0.0,0.0,87,0.00,,,0.00,WUHU216HW,2013-08-11 10:13:00,
2013-08-11 06:18:00,67.6,63.6,30.00,West,270,0.0,0.0,87,0.00,,,0.00,WUHU216HW,2013-08-11 10:18:00,
2013-08-11 06:23:00,67.4,63.4,30.00,West,270,0.0,0.0,87,0.00,,,0.00,WUHU216HW,2013-08-11 10:23:00,
2013-08-11 06:28:00,67.4,63.4,30.00,West,270,0.0,0.0,87,0.00,,,0.00,WUHU216HW,2013-08-11 10:28:00,
2013-08-11 06:33:00,67.2,63.2,30.00,West,270,0.0,0.0,87,0.00,,,0.00,WUHU216HW,2013-08-11 10:33:00,
2013-08-11 06:38:00,67.2,63.2,30.00,West,270,0.0,0.0,87,0.00,,,0.00,WUHU216HW,2013-08-11 10:38:00,
2013-08-11 06:44:00,67.2,63.2,30.00,West,270,0.0,0.0,87,0.00,,,0.00,WUHU216HW,2013-08-11 10:44:00,
2013-08-11 06:49:00,67.2,63.2,30.00,West,270,0.0,0.0,87,0.00,,,0.00,WUHU216HW,2013-08-11 10:49:00,
2013-08-11 06:54:00,67.1,63.0,30.00,West,270,0.0,0.0,87,0.00,,,0.00,WUHU216HW,2013-08-11 10:54:00,
2013-08-11 06:59:00,67.1,63.0,30.00,West,270,0.0,0.0,87,0.00,,,0.00,WUHU216HW,2013-08-11 10:59:00,
2013-08-11 07:04:00,67.1,63.0,30.01,West,270,0.0,0.0,87,0.00,,,0.00,WUHU216HW,2013-08-11 11:04:00,
2013-08-11 07:09:00,67.1,63.0,30.01,West,270,0.0,0.0,87,0.00,,,0.00,WUHU216HW,2013-08-11 11:09:00,
2013-08-11 07:14:00,66.9,62.8,30.01,West,270,0.0,0.0,87,0.00,,,0.00,WUHU216HW,2013-08-11 11:14:00,
2013-08-11 07:19:00,66.9,62.8,30.01,West,270,0.0,0.0,87,0.00,,,0.00,WUHU216HW,2013-08-11 11:19:00,
2013-08-11 07:24:00,66.7,62.7,30.01,West,270,0.0,0.0,87,0.00,,,0.00,WUHU216HW,2013-08-11 11:24:00,
2013-08-11 07:29:00,66.7,62.7,30.01,West,270,0.0,0.0,87,0.00,,,0.00,WUHU216HW,2013-08-11 11:29:00,
2013-08-11 07:34:00,66.7,62.7,30.01,West,270,0.0,0.0,87,0.00,,,0.00,WUHU216HW,2013-08-11 11:34:00,
2013-08-11 07:39:00,66.9,62.8,30.00,West,270,0.0,0.0,87,0.00,,,0.00,WUHU216HW,2013-08-11 11:39:00,
2013-08-11 07:44:00,66.7,62.7,30.01,West,270,0.0,0.0,87,0.00,,,0.00,WUHU216HW,2013-08-11 11:44:00,
2013-08-11 07:49:00,66.9,62.8,30.01,West,270,0.0,0.0,87,0.00,,,0.00,WUHU216HW,2013-08-11 11:49:00,
2013-08-11 07:54:00,66.9,62.8,30.01,West,270,0.0,0.0,87,0.00,,,0.00,WUHU216HW,2013-08-11 11:54:00,
2013-08-11 07:59:00,66.9,62.8,30.01,West,270,0.0,0.0,87,0.00,,,0.00,WUHU216HW,2013-08-11 11:59:00,
2013-08-11 08:04:00,67.1,63.0,30.01,West,270,0.0,0.0,87,0.00,,,0.00,WUHU216HW,2013-08-11 12:04:00,
2013-08-11 08:09:00,67.2,63.2,30.01,West,270,0.0,0.0,87,0.00,,,0.00,WUHU216HW,2013-08-11 12:09:00,
2013-08-11 08:14:00,67.2,63.2,30.01,West,270,0.0,0.0,87,0.00,,,0.00,WUHU216HW,2013-08-11 12:14:00,
2013-08-11 08:19:00,67.2,63.5,30.01,West,270,0.0,0.0,88,0.00,,,0.00,WUHU216HW,2013-08-11 12:19:00,
2013-08-11 08:25:00,67.6,63.9,30.01,West,270,0.0,0.0,88,0.00,,,0.00,WUHU216HW,2013-08-11 12:25:00,
2013-08-11 08:30:00,67.8,64.1,30.01,West,270,0.0,0.0,88,0.00,,,0.00,WUHU216HW,2013-08-11 12:30:00,
2013-08-11 08:35:00,68.0,64.2,30.01,West,270,0.0,0.0,88,0.00,,,0.00,WUHU216HW,2013-08-11 12:35:00,
2013-08-11 08:40:00,68.1,64.4,30.01,West,270,0.0,0.0,88,0.00,,,0.00,WUHU216HW,2013-08-11 12:40:00,
2013-08-11 08:45:00,68.3,64.6,30.01,West,270,0.0,0.0,88,0.00,,,0.00,WUHU216HW,2013-08-11 12:45:00,
2013-08-11 08:50:00,68.5,64.8,30.01,West,270,0.0,0.0,88,0.00,,,0.00,WUHU216HW,2013-08-11 12:50:00,
2013-08-11 08:55:00,68.7,64.9,30.01,West,270,0.0,0.0,88,0.00,,,0.00,WUHU216HW,2013-08-11 12:55:00,
2013-08-11 09:00:00,69.0,65.1,30.01,West,270,0.0,0.0,88,0.00,,,0.00,WUHU216HW,2013-08-11 13:00:00,
2013-08-11 09:05:00,69.2,65.5,30.02,West,270,0.0,0.0,88,0.00,,,0.00,WUHU216HW,2013-08-11 13:05:00,
2013-08-11 09:10:00,69.6,65.8,30.02,West,270,0.0,0.0,88,0.00,,,0.00,WUHU216HW,2013-08-11 13:10:00,
2013-08-11 09:15:00,69.8,66.3,30.02,West,270,0.0,0.0,89,0.00,,,0.00,WUHU216HW,2013-08-11 13:15:00,
2013-08-11 09:20:00,70.1,66.7,30.02,West,270,0.0,0.0,89,0.00,,,0.00,WUHU216HW,2013-08-11 13:20:00,
2013-08-11 09:25:00,70.5,67.1,30.02,West,270,0.0,0.0,89,0.00,,,0.00,WUHU216HW,2013-08-11 13:25:00,
2013-08-11 09:30:00,70.5,66.7,30.02,West,270,0.0,0.0,88,0.00,,,0.00,WUHU216HW,2013-08-11 13:30:00,
2013-08-11 09:35:00,70.8,67.1,30.02,West,270,0.0,0.0,88,0.00,,,0.00,WUHU216HW,2013-08-11 13:35:00,
2013-08-11 09:40:00,71.2,67.8,30.02,West,270,0.0,0.0,89,0.00,,,0.00,WUHU216HW,2013-08-11 13:40:00,
2013-08-11 09:47:00,71.4,68.0,30.02,West,270,0.0,0.0,89,0.00,,,0.00,WUHU216HW,2013-08-11 13:47:00,
2013-08-11 09:52:00,72.1,68.3,30.02,NW,315,0.0,0.0,88,0.00,,,0.00,WUHU216HW,2013-08-11 13:52:00,
2013-08-11 09:57:00,72.3,68.5,30.02,NW,315,0.0,0.0,88,0.00,,,0.00,WUHU216HW,2013-08-11 13:57:00,
2013-08-11 10:02:00,72.6,68.7,30.02,NW,315,0.0,0.0,88,0.00,,,0.00,WUHU216HW,2013-08-11 14:02:00,
2013-08-11 10:07:00,73.0,69.2,30.02,NW,315,0.0,0.0,88,0.00,,,0.00,WUHU216HW,2013-08-11 14:07:00,
2013-08-11 10:12:00,73.2,69.4,30.02,NW,315,0.0,0.0,88,0.00,,,0.00,WUHU216HW,2013-08-11 14:12:00,
2013-08-11 10:17:00,73.5,69.8,30.02,NW,315,0.0,0.0,88,0.00,,,0.00,WUHU216HW,2013-08-11 14:17:00,
2013-08-11 10:22:00,73.5,69.4,30.02,West,270,0.0,2.9,87,0.00,,,0.00,WUHU216HW,2013-08-11 14:22:00,
2013-08-11 10:27:00,74.1,69.6,30.02,South,180,0.0,2.9,86,0.00,,,0.00,WUHU216HW,2013-08-11 14:27:00,
2013-08-11 10:32:00,74.4,69.7,30.02,West,270,0.0,0.0,85,0.00,,,0.00,WUHU216HW,2013-08-11 14:32:00,
2013-08-11 10:37:00,74.6,69.8,30.02,SE,135,0.0,0.0,85,0.00,,,0.00,WUHU216HW,2013-08-11 14:37:00,
2013-08-11 10:42:00,75.0,69.9,30.02,NNW,338,0.0,0.0,84,0.00,,,0.00,WUHU216HW,2013-08-11 14:42:00,
2013-08-11 10:48:00,75.0,69.9,30.02,NNW,338,0.0,0.0,84,0.00,,,0.00,WUHU216HW,2013-08-11 14:48:00,
2013-08-11 10:53:00,75.3,69.9,30.02,West,270,0.0,0.0,83,0.00,,,0.00,WUHU216HW,2013-08-11 14:53:00,
2013-08-11 10:58:00,75.9,70.4,30.02,SSW,203,0.0,0.0,83,0.00,,,0.00,WUHU216HW,2013-08-11 14:58:00,
2013-08-11 11:03:00,75.9,70.0,30.02,South,180,0.0,0.6,82,0.00,,,0.00,WUHU216HW,2013-08-11 15:03:00,
2013-08-11 11:08:00,76.4,70.5,30.02,West,270,0.0,0.6,82,0.00,,,0.00,WUHU216HW,2013-08-11 15:08:00,
2013-08-11 11:13:00,76.6,70.0,30.02,NW,315,0.0,2.6,80,0.00,,,0.00,WUHU216HW,2013-08-11 15:13:00,
2013-08-11 11:18:00,76.8,69.7,30.02,NW,315,1.3,2.6,79,0.00,,,0.00,WUHU216HW,2013-08-11 15:18:00,
2013-08-11 11:24:00,77.0,68.8,30.02,West,270,0.0,6.2,76,0.00,,,0.00,WUHU216HW,2013-08-11 15:24:00,
2013-08-11 11:29:00,77.1,68.9,30.02,West,270,2.9,6.2,76,0.00,,,0.00,WUHU216HW,2013-08-11 15:29:00,
2013-08-11 11:34:00,77.3,68.7,30.03,North,0,0.0,2.9,75,0.00,,,0.00,WUHU216HW,2013-08-11 15:34:00,
2013-08-11 11:39:00,77.5,68.5,30.03,ENE,68,0.0,6.0,74,0.00,,,0.00,WUHU216HW,2013-08-11 15:39:00,
2013-08-11 11:44:00,77.9,68.9,30.03,SSW,203,0.0,6.0,74,0.00,,,0.00,WUHU216HW,2013-08-11 15:44:00,
2013-08-11 11:49:00,78.0,69.4,30.03,South,180,0.0,6.0,74,0.00,,,0.00,WUHU216HW,2013-08-11 15:49:00,
2013-08-11 11:54:00,78.4,69.0,30.02,SW,225,0.0,6.0,73,0.00,,,0.00,WUHU216HW,2013-08-11 15:54:00,
2013-08-11 11:59:00,78.6,69.1,30.02,WSW,248,0.0,0.0,73,0.00,,,0.00,WUHU216HW,2013-08-11 15:59:00,
2013-08-11 12:04:00,78.6,68.7,30.02,ESE,113,3.3,6.9,72,0.00,,,0.00,WUHU216HW,2013-08-11 16:04:00,
2013-08-11 12:09:00,78.9,68.7,30.02,NE,45,1.5,6.9,71,0.00,,,0.00,WUHU216HW,2013-08-11 16:09:00,
2013-08-11 12:14:00,79.1,68.9,30.02,West,270,0.0,5.3,71,0.00,,,0.00,WUHU216HW,2013-08-11 16:14:00,
2013-08-11 12:19:00,79.3,68.9,30.02,NW,315,0.0,1.5,70,0.00,,,0.00,WUHU216HW,2013-08-11 16:19:00,
2013-08-11 12:24:00,79.8,69.2,30.03,NW,315,6.7,6.7,70,0.00,,,0.00,WUHU216HW,2013-08-11 16:24:00,
2013-08-11 12:29:00,80.2,69.1,30.02,NW,315,9.8,9.8,69,0.00,,,0.00,WUHU216HW,2013-08-11 16:29:00,
2013-08-11 12:34:00,80.4,69.0,30.02,NW,315,0.4,9.8,68,0.00,,,0.00,WUHU216HW,2013-08-11 16:34:00,
2013-08-11 12:39:00,80.9,69.4,30.02,SE,135,0.0,0.4,68,0.00,,,0.00,WUHU216HW,2013-08-11 16:39:00,
2013-08-11 12:44:00,81.3,69.7,30.02,North,0,0.8,0.8,68,0.00,,,0.00,WUHU216HW,2013-08-11 16:44:00,
2013-08-11 12:49:00,81.5,69.4,30.02,North,0,0.0,0.8,67,0.00,,,0.00,WUHU216HW,2013-08-11 16:49:00,
2013-08-11 12:54:00,81.3,69.2,30.02,SSE,158,0.0,0.2,67,0.00,,,0.00,WUHU216HW,2013-08-11 16:54:00,
2013-08-11 12:59:00,81.5,68.9,30.02,SW,225,0.0,0.0,66,0.00,,,0.00,WUHU216HW,2013-08-11 16:59:00,
2013-08-11 13:04:00,81.5,68.5,30.01,NW,315,4.6,6.0,65,0.00,,,0.00,WUHU216HW,2013-08-11 17:04:00,
2013-08-11 13:09:00,81.6,68.2,30.02,NE,45,0.0,6.0,64,0.00,,,0.00,WUHU216HW,2013-08-11 17:09:00,
2013-08-11 13:14:00,82.0,69.0,30.01,NNW,338,0.0,6.0,65,0.00,,,0.00,WUHU216HW,2013-08-11 17:14:00,
2013-08-11 13:20:00,82.2,69.1,30.02,West,270,0.0,0.0,65,0.00,,,0.00,WUHU216HW,2013-08-11 17:20:00,
2013-08-11 13:25:00,82.5,68.6,30.02,NNW,338,2.4,2.4,63,0.00,,,0.00,WUHU216HW,2013-08-11 17:25:00,
2013-08-11 13:30:00,83.1,69.1,30.01,SE,135,5.3,5.3,63,0.00,,,0.00,WUHU216HW,2013-08-11 17:30:00,
2013-08-11 13:35:00,83.3,68.9,30.02,SE,135,9.1,9.1,62,0.00,,,0.00,WUHU216HW,2013-08-11 17:35:00,
2013-08-11 13:40:00,83.4,68.6,30.01,SSE,158,0.0,9.1,61,0.00,,,0.00,WUHU216HW,2013-08-11 17:40:00,
2013-08-11 13:45:00,83.8,69.4,30.01,NNW,338,2.2,9.1,62,0.00,,,0.00,WUHU216HW,2013-08-11 17:45:00,
2013-08-11 13:50:00,84.0,68.1,30.01,NW,315,0.8,2.2,59,0.00,,,0.00,WUHU216HW,2013-08-11 17:50:00,
2013-08-11 13:55:00,84.5,67.6,30.01,WNW,293,0.0,3.8,57,0.00,,,0.00,WUHU216HW,2013-08-11 17:55:00,
2013-08-11 14:00:00,84.9,68.5,30.01,NNE,23,0.0,5.1,58,0.00,,,0.00,WUHU216HW,2013-08-11 18:00:00,
2013-08-11 14:05:00,85.2,68.3,30.01,SSE,158,0.0,5.1,57,0.00,,,0.00,WUHU216HW,2013-08-11 18:05:00,
2013-08-11 14:10:00,85.2,68.3,30.01,WNW,293,0.0,2.6,57,0.00,,,0.00,WUHU216HW,2013-08-11 18:10:00,
2013-08-11 14:15:00,85.4,68.4,30.01,WNW,293,5.3,5.3,57,0.00,,,0.00,WUHU216HW,2013-08-11 18:15:00,
2013-08-11 14:20:00,85.6,67.5,30.01,NW,315,0.0,11.4,55,0.00,,,0.00,WUHU216HW,2013-08-11 18:20:00,
2013-08-11 14:25:00,85.8,68.2,30.01,East,90,0.0,11.4,56,0.00,,,0.00,WUHU216HW,2013-08-11 18:25:00,
2013-08-11 14:30:00,85.6,68.1,30.01,SSW,203,0.0,5.5,56,0.00,,,0.00,WUHU216HW,2013-08-11 18:30:00,
2013-08-11 14:35:00,85.8,68.7,30.00,North,0,0.0,5.5,56,0.00,,,0.00,WUHU216HW,2013-08-11 18:35:00,
2013-08-11 14:41:00,85.8,68.7,30.00,SSE,158,0.0,0.0,57,0.00,,,0.00,WUHU216HW,2013-08-11 18:41:00,
2013-08-11 14:46:00,85.8,68.7,30.00,WNW,293,0.0,0.0,57,0.00,,,0.00,WUHU216HW,2013-08-11 18:46:00,
2013-08-11 14:51:00,85.8,67.7,30.00,WSW,248,0.0,1.3,55,0.00,,,0.00,WUHU216HW,2013-08-11 18:51:00,
2013-08-11 14:56:00,85.6,67.5,30.00,NNW,338,3.8,3.8,55,0.00,,,0.00,WUHU216HW,2013-08-11 18:56:00,
2013-08-11 15:01:00,85.2,67.2,30.00,NW,315,0.0,6.4,55,0.00,,,0.00,WUHU216HW,2013-08-11 19:01:00,
2013-08-11 15:06:00,85.2,67.2,30.00,North,0,4.9,6.4,55,0.00,,,0.00,WUHU216HW,2013-08-11 19:06:00,
2013-08-11 15:11:00,84.7,66.7,30.00,WNW,293,10.9,10.9,55,0.00,,,0.00,WUHU216HW,2013-08-11 19:11:00,
2013-08-11 15:16:00,84.7,67.2,29.99,SSE,158,0.0,10.9,56,0.00,,,0.00,WUHU216HW,2013-08-11 19:16:00,
2013-08-11 15:22:00,84.3,66.4,29.99,WNW,293,0.0,10.9,55,0.00,,,0.00,WUHU216HW,2013-08-11 19:22:00,
2013-08-11 15:27:00,84.0,66.1,29.99,SSE,158,0.0,0.4,55,0.00,,,0.00,WUHU216HW,2013-08-11 19:27:00,
2013-08-11 15:32:00,83.8,66.4,29.99,West,270,5.3,5.3,56,0.00,,,0.00,WUHU216HW,2013-08-11 19:32:00,
2013-08-11 15:37:00,83.4,66.0,29.99,SE,135,4.6,5.3,56,0.00,,,0.00,WUHU216HW,2013-08-11 19:37:00,
2013-08-11 15:42:00,83.3,65.9,29.99,SSW,203,0.0,5.3,56,0.00,,,0.00,WUHU216HW,2013-08-11 19:42:00,
2013-08-11 15:47:00,83.1,66.2,29.99,North,0,0.0,4.6,57,0.00,,,0.00,WUHU216HW,2013-08-11 19:47:00,
2013-08-11 15:52:00,82.9,66.0,29.99,NNW,338,3.5,4.9,57,0.00,,,0.00,WUHU216HW,2013-08-11 19:52:00,
2013-08-11 15:57:00,82.9,66.0,29.99,SW,225,0.0,4.9,57,0.00,,,0.00,WUHU216HW,2013-08-11 19:57:00,
2013-08-11 16:02:00,82.7,65.8,29.99,NNW,338,6.2,6.2,57,0.00,,,0.00,WUHU216HW,2013-08-11 20:02:00,
2013-08-11 16:08:00,82.5,65.7,29.99,NE,45,0.0,6.2,57,0.00,,,0.00,WUHU216HW,2013-08-11 20:08:00,
2013-08-11 16:13:00,82.5,65.7,29.99,NW,315,9.6,9.6,57,0.00,,,0.00,WUHU216HW,2013-08-11 20:13:00,
2013-08-11 16:18:00,82.4,65.0,29.99,WNW,293,0.0,9.6,56,0.00,,,0.00,WUHU216HW,2013-08-11 20:18:00,
2013-08-11 16:23:00,82.2,64.3,29.98,NNW,338,0.0,9.6,55,0.00,,,0.00,WUHU216HW,2013-08-11 20:23:00,
2013-08-11 16:28:00,82.2,64.3,29.98,South,180,0.0,1.1,55,0.00,,,0.00,WUHU216HW,2013-08-11 20:28:00,
2013-08-11 16:33:00,82.2,64.8,29.98,WNW,293,0.0,1.1,56,0.00,,,0.00,WUHU216HW,2013-08-11 20:33:00,
2013-08-11 16:38:00,82.0,64.6,29.98,NW,315,0.0,0.0,56,0.00,,,0.00,WUHU216HW,2013-08-11 20:38:00,
2013-08-11 16:43:00,82.0,65.2,29.98,SE,135,0.0,6.4,57,0.00,,,0.00,WUHU216HW,2013-08-11 20:43:00,
2013-08-11 16:48:00,81.6,64.8,29.98,SW,225,0.0,6.4,57,0.00,,,0.00,WUHU216HW,2013-08-11 20:48:00,
2013-08-11 16:53:00,81.6,65.9,29.98,West,270,0.0,0.0,59,0.00,,,0.00,WUHU216HW,2013-08-11 20:53:00,
2013-08-11 16:58:00,81.6,64.8,29.98,WNW,293,0.0,0.0,57,0.00,,,0.00,WUHU216HW,2013-08-11 20:58:00,
2013-08-11 17:04:00,81.6,64.8,29.98,NW,315,8.9,8.9,57,0.00,,,0.00,WUHU216HW,2013-08-11 21:04:00,
2013-08-11 17:09:00,81.6,64.8,29.98,NNW,338,0.0,8.9,57,0.00,,,0.00,WUHU216HW,2013-08-11 21:09:00,
2013-08-11 17:14:00,81.6,65.4,29.98,NW,315,0.0,8.9,58,0.00,,,0.00,WUHU216HW,2013-08-11 21:14:00,
2013-08-11 17:19:00,81.6,64.8,29.98,WSW,248,0.0,10.5,57,0.00,,,0.00,WUHU216HW,2013-08-11 21:19:00,
2013-08-11 17:24:00,81.6,64.3,29.98,NW,315,0.0,10.5,56,0.00,,,0.00,WUHU216HW,2013-08-11 21:24:00,
2013-08-11 17:29:00,81.6,64.3,29.98,SSW,203,0.0,6.0,56,0.00,,,0.00,WUHU216HW,2013-08-11 21:29:00,
2013-08-11 17:34:00,81.8,65.5,29.98,NNW,338,0.0,1.5,58,0.00,,,0.00,WUHU216HW,2013-08-11 21:34:00,
2013-08-11 17:39:00,81.6,65.4,29.98,WNW,293,6.2,6.2,58,0.00,,,0.00,WUHU216HW,2013-08-11 21:39:00,
2013-08-11 17:44:00,81.6,65.4,29.98,SSW,203,0.0,6.2,58,0.00,,,0.00,WUHU216HW,2013-08-11 21:44:00,
2013-08-11 17:49:00,81.5,65.7,29.97,NW,315,0.0,6.2,59,0.00,,,0.00,WUHU216HW,2013-08-11 21:49:00,
2013-08-11 17:54:00,81.5,65.7,29.98,WNW,293,0.0,0.0,59,0.00,,,0.00,WUHU216HW,2013-08-11 21:54:00,
2013-08-11 17:59:00,81.5,65.2,29.97,NNW,338,2.6,2.6,58,0.00,,,0.00,WUHU216HW,2013-08-11 21:59:00,
2013-08-11 18:04:00,81.6,65.9,29.97,SSE,158,0.0,2.6,59,0.00,,,0.00,WUHU216HW,2013-08-11 22:04:00,
2013-08-11 18:09:00,81.5,65.2,29.98,WSW,248,0.0,5.5,58,0.00,,,0.00,WUHU216HW,2013-08-11 22:09:00,
2013-08-11 18:14:00,81.3,65.0,29.98,West,270,2.2,5.5,58,0.00,,,0.00,WUHU216HW,2013-08-11 22:14:00,
2013-08-11 18:19:00,81.5,64.7,29.98,North,0,0.0,4.4,57,0.00,,,0.00,WUHU216HW,2013-08-11 22:19:00,
2013-08-11 18:24:00,81.3,65.0,29.98,NW,315,3.5,5.5,58,0.00,,,0.00,WUHU216HW,2013-08-11 22:24:00,
2013-08-11 18:29:00,81.3,66.1,29.98,SSW,203,0.0,5.5,60,0.00,,,0.00,WUHU216HW,2013-08-11 22:29:00,
2013-08-11 18:34:00,81.1,64.9,29.97,NNW,338,0.0,0.0,58,0.00,,,0.00,WUHU216HW,2013-08-11 22:34:00,
2013-08-11 18:39:00,81.1,65.4,29.98,WNW,293,6.2,6.2,59,0.00,,,0.00,WUHU216HW,2013-08-11 22:39:00,
2013-08-11 18:44:00,81.1,64.9,29.97,WNW,293,2.0,6.9,58,0.00,,,0.00,WUHU216HW,2013-08-11 22:44:00,
2013-08-11 18:49:00,81.1,65.4,29.97,SW,225,0.0,6.9,59,0.00,,,0.00,WUHU216HW,2013-08-11 22:49:00,
2013-08-11 18:54:00,81.1,65.9,29.97,South,180,0.0,2.0,60,0.00,,,0.00,WUHU216HW,2013-08-11 22:54:00,
2013-08-11 19:00:00,80.7,66.5,29.97,SSE,158,0.0,0.0,62,0.00,,,0.00,WUHU216HW,2013-08-11 23:00:00,
2013-08-11 19:05:00,80.4,66.2,29.97,SSE,158,0.0,0.0,62,0.00,,,0.00,WUHU216HW,2013-08-11 23:05:00,
2013-08-11 19:10:00,80.4,66.2,29.97,South,180,0.0,0.0,62,0.00,,,0.00,WUHU216HW,2013-08-11 23:10:00,
2013-08-11 19:15:00,80.2,66.4,29.97,West,270,0.0,0.0,63,0.00,,,0.00,WUHU216HW,2013-08-11 23:15:00,
2013-08-11 19:20:00,80.0,66.7,29.97,West,270,0.0,0.0,64,0.00,,,0.00,WUHU216HW,2013-08-11 23:20:00,
2013-08-11 19:25:00,79.8,67.0,29.97,West,270,0.0,0.0,65,0.00,,,0.00,WUHU216HW,2013-08-11 23:25:00,
2013-08-11 19:30:00,79.5,66.7,29.97,West,270,0.0,0.0,65,0.00,,,0.00,WUHU216HW,2013-08-11 23:30:00,
2013-08-11 19:35:00,79.3,66.9,29.97,West,270,0.0,0.0,66,0.00,,,0.00,WUHU216HW,2013-08-11 23:35:00,
2013-08-11 19:40:00,79.1,66.7,29.97,West,270,0.0,0.0,66,0.00,,,0.00,WUHU216HW,2013-08-11 23:40:00,
2013-08-11 19:45:00,78.9,67.0,29.97,West,270,0.0,0.0,67,0.00,,,0.00,WUHU216HW,2013-08-11 23:45:00,
2013-08-11 19:50:00,78.6,66.7,29.97,West,270,0.0,0.0,67,0.00,,,0.00,WUHU216HW,2013-08-11 23:50:00,
2013-08-11 19:56:00,78.6,67.1,29.97,West,270,0.0,0.0,68,0.00,,,0.00,WUHU216HW,2013-08-11 23:56:00,
2013-08-11 20:01:00,78.4,66.9,29.97,West,270,0.0,0.0,68,0.00,,,0.00,WUHU216HW,2013-08-12 00:01:00,
2013-08-11 20:07:00,78.0,67.0,29.97,West,270,0.0,0.0,69,0.00,,,0.00,WUHU216HW,2013-08-12 00:07:00,
2013-08-11 20:12:00,78.0,67.0,29.97,West,270,0.0,0.0,69,0.00,,,0.00,WUHU216HW,2013-08-12 00:12:00,
2013-08-11 20:17:00,77.9,67.3,29.97,West,270,0.0,0.0,70,0.00,,,0.00,WUHU216HW,2013-08-12 00:17:00,
2013-08-11 20:22:00,77.7,67.2,29.97,West,270,0.0,0.0,70,0.00,,,0.00,WUHU216HW,2013-08-12 00:22:00,
2013-08-11 20:27:00,77.5,67.0,29.97,West,270,0.0,0.0,70,0.00,,,0.00,WUHU216HW,2013-08-12 00:27:00,
2013-08-11 20:32:00,77.3,67.2,29.97,West,270,0.0,0.0,71,0.00,,,0.00,WUHU216HW,2013-08-12 00:32:00,
2013-08-11 20:37:00,77.1,67.1,29.98,West,270,0.0,0.0,71,0.00,,,0.00,WUHU216HW,2013-08-12 00:37:00,
2013-08-11 20:42:00,76.8,67.1,29.97,West,270,0.0,0.0,72,0.00,,,0.00,WUHU216HW,2013-08-12 00:42:00,
2013-08-11 20:47:00,76.6,67.3,29.98,West,270,0.0,0.0,73,0.00,,,0.00,WUHU216HW,2013-08-12 00:47:00,
2013-08-11 20:52:00,76.2,66.9,29.98,West,270,0.0,0.0,73,0.00,,,0.00,WUHU216HW,2013-08-12 00:52:00,
2013-08-11 20:57:00,75.9,66.6,29.98,West,270,0.0,0.0,73,0.00,,,0.00,WUHU216HW,2013-08-12 00:57:00,
2013-08-11 21:02:00,75.5,66.6,29.98,West,270,0.0,0.0,74,0.00,,,0.00,WUHU216HW,2013-08-12 01:02:00,
2013-08-11 21:07:00,75.3,66.5,29.98,West,270,0.0,0.0,74,0.00,,,0.00,WUHU216HW,2013-08-12 01:07:00,
2013-08-11 21:12:00,75.3,66.5,29.98,West,270,0.0,0.0,74,0.00,,,0.00,WUHU216HW,2013-08-12 01:12:00,
2013-08-11 21:17:00,75.0,66.5,29.98,West,270,0.0,0.0,75,0.00,,,0.00,WUHU216HW,2013-08-12 01:17:00,
2013-08-11 21:22:00,74.6,66.2,29.98,West,270,0.0,0.0,75,0.00,,,0.00,WUHU216HW,2013-08-12 01:22:00,
2013-08-11 21:28:00,74.4,66.4,29.98,West,270,0.0,0.0,76,0.00,,,0.00,WUHU216HW,2013-08-12 01:28:00,
2013-08-11 21:33:00,74.1,66.0,29.99,West,270,0.0,0.0,76,0.00,,,0.00,WUHU216HW,2013-08-12 01:33:00,
2013-08-11 21:38:00,73.9,65.9,29.99,West,270,0.0,0.0,76,0.00,,,0.00,WUHU216HW,2013-08-12 01:38:00,
2013-08-11 21:43:00,73.9,65.9,29.99,West,270,0.0,0.0,76,0.00,,,0.00,WUHU216HW,2013-08-12 01:43:00,
2013-08-11 21:48:00,73.7,66.1,29.99,West,270,0.0,0.0,77,0.00,,,0.00,WUHU216HW,2013-08-12 01:48:00,
2013-08-11 21:53:00,73.5,65.7,29.99,West,270,0.0,0.0,77,0.00,,,0.00,WUHU216HW,2013-08-12 01:53:00,
2013-08-11 21:58:00,73.2,65.6,30.00,West,270,0.0,0.0,77,0.00,,,0.00,WUHU216HW,2013-08-12 01:58:00,
2013-08-11 22:04:00,72.8,65.2,30.00,West,270,0.0,0.0,77,0.00,,,0.00,WUHU216HW,2013-08-12 02:04:00,
2013-08-11 22:09:00,72.6,65.4,30.00,West,270,0.0,0.0,78,0.00,,,0.00,WUHU216HW,2013-08-12 02:09:00,
2013-08-11 22:14:00,72.3,65.0,30.00,West,270,0.0,0.0,78,0.00,,,0.00,WUHU216HW,2013-08-12 02:14:00,
2013-08-11 22:19:00,72.1,64.9,30.00,West,270,0.0,0.0,78,0.00,,,0.00,WUHU216HW,2013-08-12 02:19:00,
2013-08-11 22:24:00,71.9,65.1,30.00,West,270,0.0,0.0,79,0.00,,,0.00,WUHU216HW,2013-08-12 02:24:00,
2013-08-11 22:29:00,71.7,64.9,30.01,West,270,0.0,0.0,79,0.00,,,0.00,WUHU216HW,2013-08-12 02:29:00,
2013-08-11 22:34:00,71.4,64.5,30.01,West,270,0.0,0.0,79,0.00,,,0.00,WUHU216HW,2013-08-12 02:34:00,
2013-08-11 22:39:00,71.4,64.5,30.01,West,270,0.0,0.0,79,0.00,,,0.00,WUHU216HW,2013-08-12 02:39:00,
2013-08-11 22:44:00,71.2,64.3,30.01,West,270,0.0,0.0,79,0.00,,,0.00,WUHU216HW,2013-08-12 02:44:00,
2013-08-11 22:49:00,71.2,64.3,30.01,West,270,0.0,0.0,79,0.00,,,0.00,WUHU216HW,2013-08-12 02:49:00,
2013-08-11 22:54:00,70.8,64.0,30.01,West,270,0.0,0.0,79,0.00,,,0.00,WUHU216HW,2013-08-12 02:54:00,
2013-08-11 22:59:00,70.7,63.8,30.01,West,270,0.0,0.0,79,0.00,,,0.00,WUHU216HW,2013-08-12 02:59:00,
2013-08-11 23:04:00,70.5,63.6,30.01,West,270,0.0,0.0,79,0.00,,,0.00,WUHU216HW,2013-08-12 03:04:00,
2013-08-11 23:09:00,70.3,63.8,30.01,West,270,0.0,0.0,80,0.00,,,0.00,WUHU216HW,2013-08-12 03:09:00,
2013-08-11 23:14:00,70.3,63.8,30.01,West,270,0.0,0.0,80,0.00,,,0.00,WUHU216HW,2013-08-12 03:14:00,
2013-08-11 23:20:00,70.1,63.6,30.01,West,270,0.0,0.0,80,0.00,,,0.00,WUHU216HW,2013-08-12 03:20:00,
2013-08-11 23:25:00,69.9,63.5,30.01,West,270,0.0,0.0,80,0.00,,,0.00,WUHU216HW,2013-08-12 03:25:00,
2013-08-11 23:30:00,69.8,63.3,30.00,West,270,0.0,0.0,80,0.00,,,0.00,WUHU216HW,2013-08-12 03:30:00,
2013-08-11 23:35:00,69.6,63.1,30.00,West,270,0.0,0.0,80,0.00,,,0.00,WUHU216HW,2013-08-12 03:35:00,
2013-08-11 23:40:00,69.6,63.1,30.00,West,270,0.0,0.0,80,0.00,,,0.00,WUHU216HW,2013-08-12 03:40:00,
2013-08-11 23:45:00,69.4,62.9,30.00,West,270,0.0,0.0,80,0.00,,,0.00,WUHU216HW,2013-08-12 03:45:00,
2013-08-11 23:50:00,69.2,62.8,30.00,West,270,0.0,0.0,80,0.00,,,0.00,WUHU216HW,2013-08-12 03:50:00,
2013-08-11 23:55:00,69.0,62.9,30.00,West,270,0.0,0.0,81,0.00,,,0.00,WUHU216HW,2013-08-12 03:55:00,